createdAt,value
2018-09-04T00:00:11.204Z,17.20
2018-09-04T00:02:39.608Z,17.47
2018-09-04T00:05:08.136Z,18.90
2018-09-04T00:07:36.540Z,18.87
2018-09-04T00:10:06.299Z,18.93
2018-09-04T00:12:35.032Z,18.30
2018-09-04T00:15:03.467Z,17.37
2018-09-04T00:17:31.856Z,19.20
2018-09-04T00:20:00.481Z,19.37
2018-09-04T00:22:28.965Z,17.70
2018-09-04T00:24:57.440Z,16.03
2018-09-04T00:27:25.853Z,18.47
2018-09-04T00:29:54.308Z,17.73
2018-09-04T00:32:22.692Z,17.60
2018-09-04T00:34:51.098Z,17.83
2018-09-04T00:37:19.640Z,18.57
2018-09-04T00:39:48.684Z,17.17
2018-09-04T00:42:17.064Z,17.90
2018-09-04T00:44:45.460Z,18.40
2018-09-04T00:47:13.872Z,18.10
2018-09-04T00:49:42.251Z,18.77
2018-09-04T00:52:10.745Z,21.40
2018-09-04T00:54:39.153Z,19.63
2018-09-04T00:57:07.822Z,21.70
2018-09-04T00:59:36.300Z,20.27
2018-09-04T01:02:04.738Z,21.37
2018-09-04T01:04:33.157Z,20.70
2018-09-04T01:07:01.572Z,22.50
2018-09-04T01:09:30.056Z,20.80
2018-09-04T01:11:58.475Z,22.33
2018-09-04T01:14:26.860Z,22.77
2018-09-04T01:16:55.272Z,23.53
2018-09-04T01:19:23.707Z,22.17
2018-09-04T01:21:52.115Z,25.30
2018-09-04T01:24:20.573Z,21.40
2018-09-04T01:26:48.955Z,22.90
2018-09-04T01:29:17.464Z,22.90
2018-09-04T01:31:45.868Z,23.13
2018-09-04T01:34:14.310Z,23.57
2018-09-04T01:36:42.682Z,22.77
2018-09-04T01:39:11.069Z,21.80
2018-09-04T01:41:39.460Z,22.50
2018-09-04T01:44:07.840Z,23.17
2018-09-04T01:46:36.340Z,21.30
2018-09-04T01:49:04.786Z,21.23
2018-09-04T01:51:33.188Z,21.37
2018-09-04T01:54:01.580Z,21.83
2018-09-04T01:56:36.645Z,23.90
2018-09-04T01:59:05.239Z,22.33
2018-09-04T02:01:34.338Z,23.50
2018-09-04T02:04:02.766Z,25.17
2018-09-04T02:06:31.201Z,22.73
2018-09-04T02:08:59.596Z,25.20
2018-09-04T02:11:27.988Z,25.17
2018-09-04T02:13:56.385Z,24.80
2018-09-04T02:16:24.856Z,24.37
2018-09-04T02:18:53.406Z,24.57
2018-09-04T02:21:21.795Z,24.33
2018-09-04T02:23:50.200Z,25.13
2018-09-04T02:26:18.625Z,24.67
2018-09-04T02:28:47.122Z,27.17
2018-09-04T02:31:15.512Z,24.93
2018-09-04T02:33:43.884Z,28.40
2018-09-04T02:36:12.269Z,25.93
2018-09-04T02:38:40.696Z,25.17
2018-09-04T02:41:09.440Z,26.90
2018-09-04T02:43:37.885Z,26.17
2018-09-04T02:46:06.326Z,28.00
2018-09-04T02:48:34.825Z,25.80
2018-09-04T02:51:03.298Z,25.37
2018-09-04T02:53:31.675Z,26.60
2018-09-04T02:56:00.136Z,27.80
2018-09-04T02:58:28.592Z,25.90
2018-09-04T03:00:57.132Z,27.30
2018-09-04T03:03:25.503Z,26.77
2018-09-04T03:05:53.884Z,26.90
2018-09-04T03:08:22.256Z,25.90
2018-09-04T03:10:50.648Z,25.23
2018-09-04T03:13:19.122Z,27.13
2018-09-04T03:15:47.495Z,25.40
2018-09-04T03:18:15.876Z,26.77
2018-09-04T03:20:44.289Z,25.20
2018-09-04T03:23:12.751Z,27.53
2018-09-04T03:25:41.133Z,26.10
2018-09-04T03:28:09.575Z,28.27
2018-09-04T03:30:38.036Z,28.20
2018-09-04T03:33:06.628Z,29.73
2018-09-04T03:35:35.025Z,29.20
2018-09-04T03:38:03.422Z,28.90
2018-09-04T03:40:31.872Z,28.07
2018-09-04T03:43:00.344Z,28.43
2018-09-04T03:45:28.723Z,28.07
2018-09-04T03:47:57.126Z,25.93
2018-09-04T03:50:25.500Z,25.93
2018-09-04T03:52:53.955Z,28.10
2018-09-04T03:55:22.374Z,28.00
2018-09-04T03:57:50.809Z,26.50
2018-09-04T04:00:19.230Z,24.87
2018-09-04T04:02:47.642Z,28.43
2018-09-04T04:05:16.084Z,26.07
2018-09-04T04:07:45.537Z,26.17
2018-09-04T04:10:14.181Z,25.67
2018-09-04T04:12:42.589Z,31.43
2018-09-04T04:15:10.989Z,27.90
2018-09-04T04:17:39.406Z,30.30
2018-09-04T04:20:07.946Z,26.07
2018-09-04T04:22:36.400Z,26.10
2018-09-04T04:25:04.903Z,24.87
2018-09-04T04:27:33.307Z,29.90
2018-09-04T04:30:01.835Z,25.00
2018-09-04T04:32:31.648Z,27.77
2018-09-04T04:35:00.133Z,27.07
2018-09-04T04:37:28.702Z,29.60
2018-09-04T04:39:57.193Z,28.87
2018-09-04T04:42:25.535Z,27.47
2018-09-04T04:44:53.964Z,27.83
2018-09-04T04:47:27.611Z,29.23
2018-09-04T04:49:56.099Z,28.03
2018-09-04T04:52:24.752Z,27.83
2018-09-04T04:54:53.184Z,28.40
2018-09-04T04:57:21.612Z,25.80
2018-09-04T04:59:50.005Z,27.23
2018-09-04T05:02:18.577Z,27.80
2018-09-04T05:04:46.981Z,28.07
2018-09-04T05:07:15.377Z,25.90
2018-09-04T05:09:45.045Z,27.83
2018-09-04T05:12:13.501Z,23.73
2018-09-04T05:14:42.008Z,26.90
2018-09-04T05:17:10.492Z,26.30
2018-09-04T05:19:39.001Z,31.17
2018-09-04T05:22:07.384Z,33.03
2018-09-04T05:24:35.766Z,31.33
2018-09-04T05:27:04.210Z,26.63
2018-09-04T05:29:32.777Z,25.50
2018-09-04T05:33:05.215Z,31.57
2018-09-04T05:35:38.468Z,28.67
2018-09-04T05:38:06.911Z,25.40
2018-09-04T05:40:35.282Z,23.53
2018-09-04T05:43:05.773Z,27.17
2018-09-04T05:45:35.070Z,27.47
2018-09-04T05:48:10.815Z,25.17
2018-09-04T05:50:39.357Z,25.17
2018-09-04T05:53:07.775Z,24.00
2018-09-04T05:55:36.239Z,25.30
2018-09-04T05:58:04.631Z,24.80
2018-09-04T06:00:43.473Z,24.40
2018-09-04T06:03:12.058Z,22.90
2018-09-04T06:05:40.696Z,23.90
2018-09-04T06:08:09.157Z,24.30
2018-09-04T06:10:37.568Z,24.70
2018-09-04T06:13:06.061Z,22.60
2018-09-04T06:15:34.446Z,23.40
2018-09-04T06:18:02.857Z,31.23
2018-09-04T06:20:31.230Z,30.43
2018-09-04T06:22:59.637Z,25.00
2018-09-04T06:25:27.995Z,26.00
2018-09-04T06:27:56.415Z,27.27
2018-09-04T06:30:24.906Z,27.43
2018-09-04T06:32:53.309Z,26.70
2018-09-04T06:35:21.717Z,24.73
2018-09-04T06:37:50.085Z,26.40
2018-09-04T06:40:18.478Z,29.27
2018-09-04T06:42:46.891Z,29.07
2018-09-04T06:45:15.289Z,27.37
2018-09-04T06:47:45.676Z,27.23
2018-09-04T06:50:14.112Z,29.50
2018-09-04T06:52:42.487Z,29.27
2018-09-04T06:55:11.016Z,28.63
2018-09-04T06:57:39.392Z,30.30
2018-09-04T07:00:10.488Z,29.07
2018-09-04T07:02:38.870Z,29.17
2018-09-04T07:05:08.048Z,30.57
2018-09-04T07:07:36.452Z,30.13
2018-09-04T07:10:04.962Z,28.13
2018-09-04T07:12:33.444Z,30.60
2018-09-04T07:15:01.906Z,28.00
2018-09-04T07:17:30.290Z,26.67
2018-09-04T07:19:58.715Z,31.60
2018-09-04T07:22:27.128Z,30.90
2018-09-04T07:24:55.533Z,30.30
2018-09-04T07:27:23.944Z,30.70
2018-09-04T07:29:52.429Z,31.87
2018-09-04T07:32:20.819Z,31.60
2018-09-04T07:34:49.204Z,28.60
2018-09-04T07:37:17.693Z,28.47
2018-09-04T07:39:46.098Z,27.87
2018-09-04T07:42:14.509Z,29.07
2018-09-04T07:44:42.908Z,30.30
2018-09-04T07:47:11.324Z,27.73
2018-09-04T07:49:39.744Z,28.57
2018-09-04T07:52:08.264Z,29.10
2018-09-04T07:54:36.687Z,29.27
2018-09-04T07:57:05.125Z,29.00
2018-09-04T07:59:33.550Z,25.90
2018-09-04T08:02:02.395Z,25.97
2018-09-04T08:04:30.797Z,28.13
2018-09-04T08:06:59.240Z,25.60
2018-09-04T08:09:27.655Z,24.93
2018-09-04T08:11:56.046Z,25.70
2018-09-04T08:14:24.505Z,25.63
2018-09-04T08:16:52.936Z,25.63
2018-09-04T08:19:21.324Z,26.37
2018-09-04T08:21:49.740Z,26.90
2018-09-04T08:24:18.132Z,24.57
2018-09-04T08:26:46.635Z,24.10
2018-09-04T08:29:15.037Z,25.37
2018-09-04T08:31:43.560Z,25.67
2018-09-04T08:34:12.129Z,27.53
2018-09-04T08:36:40.529Z,26.60
2018-09-04T08:39:09.483Z,25.03
2018-09-04T08:41:37.932Z,25.70
2018-09-04T08:44:06.380Z,25.87
2018-09-04T08:46:35.124Z,24.63
2018-09-04T08:49:03.521Z,22.67
2018-09-04T08:51:31.990Z,26.70
2018-09-04T08:54:00.608Z,24.40
2018-09-04T08:56:29.032Z,23.73
2018-09-04T08:58:57.427Z,25.63
2018-09-04T09:01:25.849Z,24.97
2018-09-04T09:03:54.306Z,24.53
2018-09-04T09:06:22.709Z,24.27
2018-09-04T09:08:51.108Z,22.67
2018-09-04T09:11:19.610Z,24.53
2018-09-04T09:13:48.012Z,19.93
2018-09-04T09:16:16.531Z,18.40
2018-09-04T09:18:45.002Z,19.37
2018-09-04T09:21:13.401Z,18.03
2018-09-04T09:23:42.059Z,18.73
2018-09-04T09:26:10.548Z,18.23
2018-09-04T09:28:38.928Z,17.27
2018-09-04T09:31:07.390Z,18.80
2018-09-04T09:33:35.804Z,18.80
2018-09-04T09:36:04.217Z,18.47
2018-09-04T09:38:32.644Z,18.50
2018-09-04T09:41:01.090Z,21.03
2018-09-04T09:43:29.534Z,19.73
2018-09-04T09:45:57.915Z,19.27
2018-09-04T09:48:33.868Z,19.03
2018-09-04T09:51:02.287Z,18.57
2018-09-04T09:53:30.913Z,21.33
2018-09-04T09:55:59.114Z,19.57
2018-09-04T09:58:27.540Z,17.47
2018-09-04T10:01:01.285Z,18.60
2018-09-04T10:03:34.954Z,17.20
2018-09-04T10:06:03.312Z,18.23
2018-09-04T10:08:31.776Z,17.40
2018-09-04T10:11:00.175Z,18.70
2018-09-04T10:13:28.627Z,17.23
2018-09-04T10:15:57.037Z,16.53
2018-09-04T10:18:25.449Z,16.77
2018-09-04T10:20:53.850Z,15.53
2018-09-04T10:23:22.286Z,16.50
2018-09-04T10:25:50.856Z,13.93
2018-09-04T10:28:19.326Z,14.23
2018-09-04T10:30:47.740Z,15.10
2018-09-04T10:33:16.154Z,15.27
2018-09-04T10:35:44.554Z,15.53
2018-09-04T10:38:13.015Z,14.37
2018-09-04T10:40:43.463Z,15.13
2018-09-04T10:43:11.816Z,14.07
2018-09-04T10:45:45.513Z,13.57
2018-09-04T10:48:15.309Z,12.77
2018-09-04T10:50:43.708Z,13.57
2018-09-04T10:53:12.112Z,12.77
2018-09-04T10:55:40.561Z,11.93
2018-09-04T10:58:08.955Z,12.30
2018-09-04T11:00:37.442Z,13.27
2018-09-04T11:03:05.855Z,10.87
2018-09-04T11:05:34.338Z,11.97
2018-09-04T11:08:02.730Z,11.47
2018-09-04T11:10:31.163Z,12.10
2018-09-04T11:12:59.605Z,10.93
2018-09-04T11:15:28.044Z,11.77
2018-09-04T11:17:56.614Z,12.20
2018-09-04T11:20:25.282Z,12.37
2018-09-04T11:22:53.687Z,11.43
2018-09-04T11:25:22.113Z,11.97
2018-09-04T11:27:50.548Z,11.03
2018-09-04T11:30:18.980Z,10.10
2018-09-04T11:32:47.406Z,11.60
2018-09-04T11:35:15.817Z,10.60
2018-09-04T11:37:44.260Z,11.10
2018-09-04T11:40:12.721Z,10.90
2018-09-04T11:42:41.519Z,11.40
2018-09-04T11:45:10.501Z,11.77
2018-09-04T11:47:41.251Z,10.70
2018-09-04T11:50:10.330Z,11.25
2018-09-04T11:52:39.244Z,10.32
2018-09-04T11:55:08.773Z,11.55
2018-09-04T11:57:37.174Z,10.18
2018-09-04T12:00:07.091Z,11.53
2018-09-04T12:02:37.230Z,10.60
2018-09-04T12:05:05.833Z,11.00
2018-09-04T12:07:34.229Z,10.73
2018-09-04T12:10:02.673Z,10.20
2018-09-04T12:12:32.364Z,10.58
2018-09-04T12:15:00.621Z,11.50
2018-09-04T12:17:29.034Z,10.88
2018-09-04T12:20:10.261Z,10.68
2018-09-04T12:22:38.939Z,10.78
2018-09-04T12:25:07.426Z,14.03
2018-09-04T12:27:35.811Z,12.67
2018-09-04T12:30:04.305Z,12.53
2018-09-04T12:32:32.716Z,13.50
2018-09-04T12:35:01.132Z,13.35
2018-09-04T12:37:29.587Z,13.53
2018-09-04T12:39:58.408Z,13.27
2018-09-04T12:42:27.643Z,13.77
2018-09-04T12:44:58.132Z,12.97
2018-09-04T12:47:26.528Z,12.77
2018-09-04T12:49:55.945Z,11.83
2018-09-04T12:52:24.401Z,13.20
2018-09-04T12:54:52.857Z,12.80
2018-09-04T12:57:21.293Z,13.07
2018-09-04T12:59:49.687Z,12.77
2018-09-04T13:02:18.200Z,12.63
2018-09-04T13:04:46.812Z,13.53
2018-09-04T13:07:15.200Z,13.67
2018-09-04T13:09:43.673Z,12.07
2018-09-04T13:12:12.130Z,13.47
2018-09-04T13:14:40.685Z,12.70
2018-09-04T13:17:09.060Z,12.47
2018-09-04T13:19:38.280Z,12.60
2018-09-04T13:22:06.736Z,11.83
2018-09-04T13:24:35.344Z,12.77
2018-09-04T13:27:03.804Z,12.70
2018-09-04T13:29:32.188Z,13.23
2018-09-04T13:32:00.596Z,12.40
2018-09-04T13:34:29.156Z,12.80
2018-09-04T13:36:57.532Z,13.53
2018-09-04T13:39:25.968Z,13.67
2018-09-04T13:41:54.371Z,12.47
2018-09-04T13:44:22.843Z,12.23
2018-09-04T13:46:51.896Z,13.27
2018-09-04T13:49:20.424Z,12.47
2018-09-04T13:51:48.775Z,12.53
2018-09-04T13:54:17.159Z,12.80
2018-09-04T13:56:45.584Z,14.00
2018-09-04T13:59:13.984Z,12.27
2018-09-04T14:01:42.412Z,13.13
2018-09-04T14:04:10.876Z,13.00
2018-09-04T14:06:39.309Z,12.27
2018-09-04T14:09:08.340Z,12.77
2018-09-04T14:11:36.756Z,12.37
2018-09-04T14:14:05.241Z,13.10
2018-09-04T14:16:43.153Z,12.20
2018-09-04T14:19:02.112Z,12.00
2018-09-04T14:21:30.748Z,12.80
2018-09-04T14:23:59.223Z,12.10
2018-09-04T14:26:27.746Z,12.23
2018-09-04T14:29:07.675Z,12.57
2018-09-04T14:31:24.560Z,12.50
2018-09-04T14:33:53.171Z,12.37
2018-09-04T14:36:21.686Z,12.13
2018-09-04T14:38:50.029Z,11.85
2018-09-04T14:41:18.504Z,11.90
2018-09-04T14:43:46.933Z,10.73
2018-09-04T14:46:15.348Z,12.10
2018-09-04T14:48:43.827Z,10.90
2018-09-04T14:51:12.397Z,11.37
2018-09-04T14:53:41.035Z,11.37
2018-09-04T14:56:09.461Z,11.30
2018-09-04T14:58:37.863Z,11.75
2018-09-04T15:01:06.337Z,11.23
2018-09-04T15:03:34.756Z,11.68
2018-09-04T15:06:03.212Z,10.82
2018-09-04T15:08:31.540Z,12.23
2018-09-04T15:10:59.960Z,11.22
2018-09-04T15:13:28.365Z,12.00
2018-09-04T15:15:56.842Z,12.68
2018-09-04T15:18:25.200Z,11.40
2018-09-04T15:20:53.643Z,12.00
2018-09-04T15:23:22.044Z,11.63
2018-09-04T15:25:50.462Z,12.33
2018-09-04T15:28:18.870Z,11.45
2018-09-04T15:30:47.524Z,16.83
2018-09-04T15:33:15.950Z,19.23
2018-09-04T15:35:44.432Z,20.73
2018-09-04T15:38:12.966Z,15.83
2018-09-04T15:40:41.428Z,14.30
2018-09-04T15:43:09.860Z,10.47
2018-09-04T15:45:38.255Z,12.83
2018-09-04T15:48:06.667Z,18.27
2018-09-04T15:50:35.098Z,22.40
2018-09-04T15:53:03.629Z,18.57
2018-09-04T15:55:32.090Z,21.30
2018-09-04T15:58:00.490Z,22.27
2018-09-04T16:00:28.941Z,27.70
2018-09-04T16:02:57.417Z,29.77
2018-09-04T16:05:27.019Z,28.97
2018-09-04T16:07:56.244Z,30.27
2018-09-04T16:10:24.758Z,30.50
2018-09-04T16:12:53.063Z,20.00
2018-09-04T16:15:21.495Z,24.87
2018-09-04T16:17:50.018Z,18.67
2018-09-04T16:20:18.490Z,19.83
2018-09-04T16:22:46.911Z,26.50
2018-09-04T16:25:15.341Z,29.03
2018-09-04T16:27:43.739Z,29.53
2018-09-04T16:30:12.396Z,32.67
2018-09-04T16:32:40.817Z,31.13
2018-09-04T16:35:09.309Z,35.40
2018-09-04T16:37:37.716Z,39.57
2018-09-04T16:40:06.246Z,41.60
2018-09-04T16:42:34.773Z,37.23
2018-09-04T16:45:03.218Z,41.80
2018-09-04T16:47:32.061Z,43.27
2018-09-04T16:50:00.597Z,46.70
2018-09-04T16:52:29.065Z,47.13
2018-09-04T16:54:57.657Z,44.60
2018-09-04T16:57:26.261Z,40.57
2018-09-04T16:59:54.669Z,41.57
2018-09-04T17:02:23.590Z,41.07
2018-09-04T17:04:52.020Z,45.20
2018-09-04T17:07:20.430Z,47.90
2018-09-04T17:09:48.931Z,38.60
2018-09-04T17:12:17.396Z,40.97
2018-09-04T17:14:45.873Z,40.43
2018-09-04T17:17:14.285Z,37.83
2018-09-04T17:19:42.831Z,37.77
2018-09-04T17:22:11.277Z,43.17
2018-09-04T17:24:39.696Z,44.50
2018-09-04T17:27:08.140Z,44.03
2018-09-04T17:29:36.607Z,47.43
2018-09-04T17:32:05.067Z,38.20
2018-09-04T17:34:33.514Z,37.17
2018-09-04T17:37:01.976Z,39.87
2018-09-04T17:39:30.409Z,37.33
2018-09-04T17:41:58.841Z,42.43
2018-09-04T17:44:27.556Z,45.13
2018-09-04T17:46:56.035Z,49.63
2018-09-04T17:49:24.492Z,45.90
2018-09-04T17:51:53.008Z,44.80
2018-09-04T17:54:21.405Z,46.33
2018-09-04T17:56:49.897Z,43.17
2018-09-04T17:59:18.328Z,42.23
2018-09-04T18:01:46.745Z,39.40
2018-09-04T18:04:15.247Z,39.00
2018-09-04T18:06:43.656Z,34.90
2018-09-04T18:09:12.140Z,39.23
2018-09-04T18:11:40.628Z,36.97
2018-09-04T18:14:09.096Z,34.77
2018-09-04T18:16:37.904Z,36.67
2018-09-04T18:19:06.352Z,34.87
2018-09-04T18:21:34.836Z,37.77
2018-09-04T18:24:03.320Z,37.03
2018-09-04T18:26:31.910Z,37.60
2018-09-04T18:29:00.337Z,38.10
2018-09-04T18:31:28.780Z,41.93
2018-09-04T18:33:57.204Z,37.87
2018-09-04T18:36:25.751Z,40.47
2018-09-04T18:38:54.248Z,40.73
2018-09-04T18:41:22.701Z,38.93
2018-09-04T18:43:51.622Z,40.27
2018-09-04T18:46:20.065Z,34.50
2018-09-04T18:48:48.611Z,40.30
2018-09-04T18:51:17.040Z,39.80
2018-09-04T18:53:45.497Z,42.40
2018-09-04T18:56:14.005Z,44.93
2018-09-04T18:58:42.827Z,45.57
2018-09-04T19:01:11.535Z,47.10
2018-09-04T19:03:40.408Z,45.23
2018-09-04T19:06:09.060Z,41.87
2018-09-04T19:08:37.709Z,42.17
2018-09-04T19:11:06.365Z,42.53
2018-09-04T19:13:35.552Z,46.07
2018-09-04T19:16:04.523Z,51.70
2018-09-04T19:18:33.335Z,41.43
2018-09-04T19:21:01.755Z,48.50
2018-09-04T19:23:30.258Z,47.60
2018-09-04T19:25:59.016Z,47.07
2018-09-04T19:28:27.878Z,48.93
2018-09-04T19:30:56.520Z,53.03
2018-09-04T19:33:25.650Z,48.77
2018-09-04T19:35:54.941Z,50.47
2018-09-04T19:38:23.384Z,53.87
2018-09-04T19:40:52.215Z,53.20
2018-09-04T19:43:20.751Z,53.73
2018-09-04T19:45:49.341Z,48.97
2018-09-04T19:48:17.814Z,53.60
2018-09-04T19:50:46.292Z,50.20
2018-09-04T19:53:14.832Z,54.17
2018-09-04T19:55:43.236Z,50.63
2018-09-04T19:58:11.696Z,52.50
2018-09-04T20:00:40.310Z,49.37
2018-09-04T20:03:08.812Z,49.83
2018-09-04T20:05:37.356Z,50.40
2018-09-04T20:08:05.870Z,52.03
2018-09-04T20:10:34.312Z,50.10
2018-09-04T20:13:02.892Z,46.73
2018-09-04T20:15:31.648Z,49.73
2018-09-04T20:18:00.090Z,49.23
2018-09-04T20:20:28.984Z,50.33
2018-09-04T20:22:57.487Z,47.33
2018-09-04T20:25:25.973Z,51.97
2018-09-04T20:27:54.460Z,50.97
2018-09-04T20:30:22.961Z,46.50
2018-09-04T20:32:51.459Z,45.57
2018-09-04T20:35:19.967Z,44.03
2018-09-04T20:37:48.356Z,46.53
2018-09-04T20:40:16.861Z,46.13
2018-09-04T20:42:45.312Z,43.37
2018-09-04T20:45:13.958Z,48.93
2018-09-04T20:47:42.571Z,48.00
2018-09-04T20:50:11.125Z,47.70
2018-09-04T20:52:39.624Z,47.90
2018-09-04T20:55:08.224Z,48.97
2018-09-04T20:57:37.196Z,46.57
2018-09-04T21:00:18.520Z,48.60
2018-09-04T21:02:58.180Z,49.13
2018-09-04T21:05:37.920Z,52.60
2018-09-04T21:08:17.596Z,57.83
2018-09-04T21:10:46.967Z,49.97
2018-09-04T21:13:15.942Z,45.20
2018-09-04T21:15:44.676Z,50.27
2018-09-04T21:18:13.279Z,46.57
2018-09-04T21:20:41.789Z,44.37
2018-09-04T21:23:10.272Z,49.77
2018-09-04T21:25:38.744Z,43.87
2018-09-04T21:28:07.355Z,46.70
2018-09-04T21:30:35.776Z,50.43
2018-09-04T21:33:05.136Z,51.03
2018-09-04T21:35:33.878Z,45.70
2018-09-04T21:38:03.029Z,47.97
2018-09-04T21:40:31.492Z,50.70
2018-09-04T21:42:59.972Z,43.27
2018-09-04T21:45:28.619Z,46.23
2018-09-04T21:47:57.445Z,43.80
2018-09-04T21:50:26.045Z,37.90
2018-09-04T21:52:55.129Z,40.07
2018-09-04T21:55:23.812Z,39.30
2018-09-04T21:57:52.426Z,45.23
2018-09-04T22:00:26.238Z,41.33
2018-09-04T22:02:56.200Z,39.60
2018-09-04T22:05:25.523Z,39.10
2018-09-04T22:07:55.244Z,36.40
2018-09-04T22:10:24.424Z,34.20
2018-09-04T22:12:52.881Z,43.70
2018-09-04T22:15:21.528Z,37.10
2018-09-04T22:18:37.764Z,35.67
2018-09-04T22:21:06.980Z,44.00
2018-09-04T22:23:36.308Z,42.33
2018-09-04T22:26:05.479Z,49.73
2018-09-04T22:28:34.471Z,39.87
2018-09-04T22:31:02.915Z,48.20
2018-09-04T22:33:31.443Z,41.27
2018-09-04T22:36:00.081Z,40.87
2018-09-04T22:38:28.520Z,46.13
2018-09-04T22:40:56.959Z,41.83
2018-09-04T22:43:25.392Z,44.37
2018-09-04T22:45:54.114Z,44.40
2018-09-04T22:48:22.794Z,42.27
2018-09-04T22:50:56.884Z,39.90
2018-09-04T22:53:27.827Z,44.17
2018-09-04T22:55:56.273Z,42.47
2018-09-04T22:58:25.140Z,42.33
2018-09-04T23:00:53.787Z,43.80
2018-09-04T23:03:22.186Z,50.20
2018-09-04T23:05:54.277Z,45.17
2018-09-04T23:08:23.617Z,46.67
2018-09-04T23:10:52.084Z,40.53
2018-09-04T23:13:20.489Z,38.20
2018-09-04T23:15:48.908Z,41.50
2018-09-04T23:18:17.376Z,39.93
2018-09-04T23:20:45.780Z,47.63
2018-09-04T23:23:14.152Z,38.50
2018-09-04T23:25:42.563Z,46.00
2018-09-04T23:28:10.980Z,45.47
2018-09-04T23:30:39.433Z,43.03
2018-09-04T23:33:07.855Z,41.03
2018-09-04T23:35:36.374Z,40.33
2018-09-04T23:38:05.098Z,40.63
2018-09-04T23:40:35.436Z,38.63
2018-09-04T23:43:04.023Z,40.00
2018-09-04T23:45:32.644Z,41.83
2018-09-04T23:48:01.213Z,37.07
2018-09-04T23:50:31.073Z,37.63
2018-09-04T23:52:59.707Z,36.60
2018-09-04T23:55:28.482Z,38.73
2018-09-04T23:57:57.015Z,34.77
